Howe, IN (46746)

2:04 PM EST on February 12, 2016 (GMT -0500)
Kirsch Municipal | | Change Station
CLOSE
Current Station
Airport
Location: Sturgis,
Elevation: 925 ft
Nearby Weather Stations

Elev 925 ft 41.82 °N, 85.44 °W | Updated 9 minutes ago

Snow
Snow
20 °F
Feels Like 9 °F
N
10
Wind Variable Wind from NW
Gusts 20 mph

Today
High -- | Low -- °F
--% Chance of Precip.
Yesterday
High -- | Low -- °F
Precip. -- in
Pressure 30.01 in
Visibility 1.0 miles
Clouds Overcast 1500 ft
Windchill 9 °F
Dew Point 16 °F
Humidity 83%
Rainfall 0.00 in
Snow Depth Not available.
7:41 AM 6:10 PM
Waxing Crescent, 23% visible
METAR KIRS 121855Z AUTO 31009G17KT 1SM -SN OVC015 M06/M09 A3001 RMK AO2 T10651089
Pressure 30.01 in
Visibility 1.0 miles
Clouds Overcast 1500 ft
Windchill 9 °F
Dew Point 16 °F
Humidity 83%
Rainfall 0.00 in
Snow Depth Not available.
7:41 AM 6:10 PM
Waxing Crescent, 23% visible
METAR KIRS 121855Z AUTO 31009G17KT 1SM -SN OVC015 M06/M09 A3001 RMK AO2 T10651089

10-Day Weather Forecast

Almanac

Astronomy

Feb. 12, 2016 Rise Set
Actual Time
Civil Twilight
Nautical Twilight
Astronomical Twilight
Moon
Length of Visible Light
Length of Day
Tomorrow will be .
, % of the Moon is Illuminated

Today's Extremes

State Highs State Lows

Community

WunderPhotos

Upload Photos

1,892,374 photos uploaded!

WunderBlog® & News

Nearby

Air Quality

  Air Quality AQ Index Pollutant
Not available.

Snow Depth

Station Depth Elevation

Earthquake Activity

City Distance Mag. Time & Date
Minimum magnitude displayed is 2.5.

Coastal Water Temperatures

Place Temperature

Stations

Nearby Weather Stations

Station Location Temp. Windchill Dew Point Humidity Wind Precip. Elev Updated Type
                   

Watches & Warnings

There are currently no watches in effect.